createdAt,value
2022-07-28T00:00:30.933Z,24.4
2022-07-28T00:02:57.539Z,24.4
2022-07-28T00:05:24.162Z,24.4
2022-07-28T00:07:50.798Z,24.4
2022-07-28T00:10:17.420Z,24.4
2022-07-28T00:12:42.542Z,24.4
2022-07-28T00:15:09.176Z,24.4
2022-07-28T00:17:35.790Z,24.4
2022-07-28T00:20:02.404Z,24.4
2022-07-28T00:22:29.029Z,24.4
2022-07-28T00:24:55.659Z,24.4
2022-07-28T00:27:22.274Z,24.4
2022-07-28T00:29:48.900Z,24.3
2022-07-28T00:32:15.523Z,24.3
2022-07-28T00:34:42.160Z,24.3
2022-07-28T00:37:08.767Z,24.3
2022-07-28T00:39:35.384Z,24.3
2022-07-28T00:42:02.020Z,24.3
2022-07-28T00:44:27.156Z,24.3
2022-07-28T00:46:53.762Z,24.3
2022-07-28T00:49:20.398Z,24.3
2022-07-28T00:51:47.010Z,24.3
2022-07-28T00:54:13.644Z,24.3
2022-07-28T00:56:40.260Z,24.2
2022-07-28T00:59:06.890Z,24.2
2022-07-28T01:01:33.509Z,24.2
2022-07-28T01:04:00.128Z,24.2
2022-07-28T01:06:26.744Z,24.2
2022-07-28T01:08:53.373Z,24.2
2022-07-28T01:11:19.990Z,24.2
2022-07-28T01:13:46.615Z,24.2
2022-07-28T01:16:11.737Z,24.2
2022-07-28T01:18:38.370Z,24.2
2022-07-28T01:21:04.992Z,24.2
2022-07-28T01:23:31.611Z,24.2
2022-07-28T01:25:58.243Z,24.2
2022-07-28T01:28:24.873Z,24.2
2022-07-28T01:30:51.469Z,24.2
2022-07-28T01:33:18.112Z,24.2
2022-07-28T01:35:44.729Z,24.2
2022-07-28T01:38:11.342Z,24.2
2022-07-28T01:40:37.966Z,24.2
2022-07-28T01:43:04.597Z,24.1
2022-07-28T01:45:31.229Z,24.1
2022-07-28T01:47:56.332Z,24.1
2022-07-28T01:50:22.955Z,24.1
2022-07-28T01:52:49.587Z,24.1
2022-07-28T01:55:16.210Z,24.1
2022-07-28T01:57:42.842Z,24.1
2022-07-28T02:00:09.459Z,24.1
2022-07-28T02:02:36.080Z,24.1
2022-07-28T02:05:02.700Z,24.1
2022-07-28T02:07:29.320Z,24.1
2022-07-28T02:09:55.945Z,24.1
2022-07-28T02:12:22.574Z,24.1
2022-07-28T02:14:49.189Z,24.1
2022-07-28T02:17:15.809Z,24.1
2022-07-28T02:19:40.942Z,24.1
2022-07-28T02:22:07.559Z,24.1
2022-07-28T02:24:34.183Z,24.1
2022-07-28T02:27:00.799Z,24.1
2022-07-28T02:29:27.425Z,24
2022-07-28T02:31:54.049Z,24
2022-07-28T02:34:20.677Z,24
2022-07-28T02:36:47.299Z,24
2022-07-28T02:39:13.918Z,24
2022-07-28T02:41:40.535Z,24
2022-07-28T02:44:07.153Z,24
2022-07-28T02:46:33.788Z,24
2022-07-28T02:49:00.402Z,24
2022-07-28T02:51:25.531Z,24
2022-07-28T02:53:52.146Z,23.9
2022-07-28T02:56:18.768Z,23.9
2022-07-28T02:58:45.413Z,23.9
2022-07-28T03:01:12.019Z,23.9
2022-07-28T03:03:38.652Z,23.9
2022-07-28T03:06:05.267Z,23.9
2022-07-28T03:08:31.898Z,23.9
2022-07-28T03:10:58.512Z,23.9
2022-07-28T03:13:25.133Z,23.9
2022-07-28T03:15:51.766Z,23.9
2022-07-28T03:18:18.375Z,23.9
2022-07-28T03:20:45.008Z,23.9
2022-07-28T03:23:10.139Z,23.9
2022-07-28T03:25:36.747Z,23.9
2022-07-28T03:28:03.382Z,23.9
2022-07-28T03:30:30.004Z,23.9
2022-07-28T03:32:56.617Z,23.8
2022-07-28T03:35:23.251Z,23.8
2022-07-28T03:37:49.881Z,23.8
2022-07-28T03:40:16.489Z,23.8
2022-07-28T03:42:43.113Z,23.8
2022-07-28T03:45:09.770Z,23.8
2022-07-28T03:47:36.360Z,23.8
2022-07-28T03:50:02.987Z,23.8
2022-07-28T03:52:29.600Z,23.8
2022-07-28T03:54:54.741Z,23.8
2022-07-28T03:57:21.373Z,23.7
2022-07-28T03:59:47.976Z,23.7
2022-07-28T04:02:14.594Z,23.7
2022-07-28T04:04:41.219Z,23.7
2022-07-28T04:07:07.853Z,23.7
2022-07-28T04:09:34.469Z,23.7
2022-07-28T04:12:01.089Z,23.7
2022-07-28T04:14:27.720Z,23.7
2022-07-28T04:16:54.342Z,23.7
2022-07-28T04:19:20.951Z,23.7
2022-07-28T04:21:47.585Z,23.7
2022-07-28T04:24:14.205Z,23.7
2022-07-28T04:26:39.355Z,23.7
2022-07-28T04:29:05.966Z,23.7
2022-07-28T04:31:32.573Z,23.7
2022-07-28T04:33:59.212Z,23.7
2022-07-28T04:36:25.819Z,23.6
2022-07-28T04:38:52.456Z,23.6
2022-07-28T04:41:19.077Z,23.6
2022-07-28T04:43:45.695Z,23.6
2022-07-28T04:46:12.328Z,23.6
2022-07-28T04:48:38.937Z,23.6
2022-07-28T04:51:05.558Z,23.6
2022-07-28T04:53:32.188Z,23.6
2022-07-28T04:55:58.819Z,23.6
2022-07-28T04:58:25.432Z,23.6
2022-07-28T05:00:51.087Z,23.6
2022-07-28T05:03:17.173Z,23.6
2022-07-28T05:05:43.794Z,23.6
2022-07-28T05:08:10.428Z,23.6
2022-07-28T05:10:37.058Z,23.6
2022-07-28T05:13:03.668Z,23.5
2022-07-28T05:15:30.307Z,23.5
2022-07-28T05:17:56.908Z,23.5
2022-07-28T05:20:23.538Z,23.5
2022-07-28T05:22:50.159Z,23.5
2022-07-28T05:25:16.792Z,23.5
2022-07-28T05:27:43.410Z,23.5
2022-07-28T05:30:10.040Z,23.4
2022-07-28T05:32:35.159Z,23.4
2022-07-28T05:35:01.792Z,23.4
2022-07-28T05:37:28.401Z,23.4
2022-07-28T05:39:55.025Z,23.4
2022-07-28T05:42:21.650Z,23.4
2022-07-28T05:44:48.286Z,23.4
2022-07-28T05:47:14.895Z,23.4
2022-07-28T05:49:41.513Z,23.4
2022-07-28T05:52:08.138Z,23.4
2022-07-28T05:54:34.761Z,23.4
2022-07-28T05:57:01.396Z,23.4
2022-07-28T05:59:28.006Z,23.4
2022-07-28T06:01:54.647Z,23.4
2022-07-28T06:04:19.766Z,23.4
2022-07-28T06:06:46.391Z,23.4
2022-07-28T06:09:12.997Z,23.3
2022-07-28T06:11:39.629Z,23.3
2022-07-28T06:14:06.251Z,23.3
2022-07-28T06:16:32.878Z,23.3
2022-07-28T06:18:59.514Z,23.3
2022-07-28T06:21:26.125Z,23.3
2022-07-28T06:23:52.733Z,23.2
2022-07-28T06:26:19.360Z,23.2
2022-07-28T06:28:45.994Z,23.2
2022-07-28T06:31:12.616Z,23.2
2022-07-28T06:33:39.224Z,23.2
2022-07-28T06:36:04.368Z,23.2
2022-07-28T06:38:30.992Z,23.2
2022-07-28T06:40:57.605Z,23.2
2022-07-28T06:43:24.222Z,23.2
2022-07-28T06:45:50.847Z,23.2
2022-07-28T06:48:17.479Z,23.2
2022-07-28T06:50:44.091Z,23.2
2022-07-28T06:53:10.735Z,23.2
2022-07-28T06:55:37.387Z,23.2
2022-07-28T06:58:03.977Z,23.1
2022-07-28T07:00:30.596Z,23.1
2022-07-28T07:02:57.201Z,23.1
2022-07-28T07:05:23.836Z,23.1
2022-07-28T07:07:48.966Z,23.1
2022-07-28T07:10:15.587Z,23.1
2022-07-28T07:12:42.190Z,23.1
2022-07-28T07:15:08.830Z,23.1
2022-07-28T07:17:35.461Z,23.1
2022-07-28T07:20:02.070Z,23.1
2022-07-28T07:22:28.689Z,23.1
2022-07-28T07:24:55.323Z,23.1
2022-07-28T07:27:21.940Z,23.1
2022-07-28T07:29:48.563Z,23.1
2022-07-28T07:32:15.174Z,23.1
2022-07-28T07:34:41.807Z,23
2022-07-28T07:37:08.423Z,23
2022-07-28T07:39:33.554Z,23
2022-07-28T07:42:00.190Z,23
2022-07-28T07:44:26.812Z,23
2022-07-28T07:46:53.416Z,23
2022-07-28T07:49:20.052Z,22.9
2022-07-28T07:51:45.171Z,22.9
2022-07-28T07:54:11.809Z,22.9
2022-07-28T07:56:38.432Z,22.9
2022-07-28T07:59:05.055Z,22.9
2022-07-28T08:01:31.671Z,22.9
2022-07-28T08:03:58.360Z,22.9
2022-07-28T08:06:24.921Z,22.9
2022-07-28T08:08:51.530Z,22.9
2022-07-28T08:11:18.166Z,22.9
2022-07-28T08:13:44.792Z,22.9
2022-07-28T08:16:11.402Z,22.9
2022-07-28T08:18:38.027Z,22.9
2022-07-28T08:21:04.672Z,22.9
2022-07-28T08:23:29.782Z,22.9
2022-07-28T08:25:56.393Z,22.9
2022-07-28T08:28:23.025Z,22.9
2022-07-28T08:30:49.653Z,22.9
2022-07-28T08:33:16.268Z,22.9
2022-07-28T08:35:42.894Z,22.9
2022-07-28T08:38:09.509Z,22.9
2022-07-28T08:40:36.145Z,22.9
2022-07-28T08:43:02.787Z,22.9
2022-07-28T08:45:29.375Z,22.9
2022-07-28T08:47:56.017Z,22.9
2022-07-28T08:50:22.633Z,22.9
2022-07-28T08:52:49.244Z,22.9
2022-07-28T08:55:14.389Z,22.9
2022-07-28T08:57:41.020Z,22.8
2022-07-28T09:00:07.642Z,22.8
2022-07-28T09:02:34.242Z,22.9
2022-07-28T09:05:00.889Z,22.8
2022-07-28T09:07:27.519Z,22.8
2022-07-28T09:09:54.126Z,22.9
2022-07-28T09:12:20.746Z,22.8
2022-07-28T09:14:47.553Z,22.9
2022-07-28T09:17:13.991Z,22.9
2022-07-28T09:19:40.618Z,22.9
2022-07-28T09:22:07.232Z,22.9
2022-07-28T09:24:33.863Z,22.9
2022-07-28T09:26:58.991Z,22.9
2022-07-28T09:29:25.610Z,22.9
2022-07-28T09:31:52.252Z,22.9
2022-07-28T09:34:18.849Z,22.9
2022-07-28T09:36:45.468Z,22.9
2022-07-28T09:39:12.099Z,22.9
2022-07-28T09:41:38.734Z,22.9
2022-07-28T09:44:05.384Z,22.9
2022-07-28T09:46:31.978Z,22.9
2022-07-28T09:48:58.614Z,22.9
2022-07-28T09:51:25.236Z,22.9
2022-07-28T09:53:51.850Z,22.9
2022-07-28T09:56:18.470Z,22.9
2022-07-28T09:58:43.616Z,23
2022-07-28T10:01:10.211Z,23
2022-07-28T10:03:36.862Z,23
2022-07-28T10:06:03.475Z,23
2022-07-28T10:08:30.099Z,23
2022-07-28T10:10:56.718Z,23.1
2022-07-28T10:13:23.335Z,23.1
2022-07-28T10:15:49.980Z,23.1
2022-07-28T10:18:16.585Z,23.1
2022-07-28T10:20:43.202Z,23.1
2022-07-28T10:23:10.043Z,23.1
2022-07-28T10:25:36.448Z,23.1
2022-07-28T10:28:03.313Z,23.1
2022-07-28T10:30:28.204Z,23.1
2022-07-28T10:32:54.836Z,23.1
2022-07-28T10:35:21.454Z,23.1
2022-07-28T10:37:48.087Z,23.1
2022-07-28T10:40:14.706Z,23.1
2022-07-28T10:42:41.322Z,23.1
2022-07-28T10:45:07.944Z,23.2
2022-07-28T10:47:34.569Z,23.2
2022-07-28T10:50:01.177Z,23.2
2022-07-28T10:52:27.811Z,23.2
2022-07-28T10:54:54.441Z,23.2
2022-07-28T10:57:21.069Z,23.2
2022-07-28T10:59:47.699Z,23.2
2022-07-28T11:02:12.813Z,23.2
2022-07-28T11:04:39.434Z,23.2
2022-07-28T11:07:06.049Z,23.2
2022-07-28T11:09:32.681Z,23.2
2022-07-28T11:11:59.307Z,23.2
2022-07-28T11:14:25.931Z,23.3
2022-07-28T11:16:52.557Z,23.3
2022-07-28T11:19:19.169Z,23.3
2022-07-28T11:21:45.796Z,23.3
2022-07-28T11:24:12.418Z,23.3
2022-07-28T11:26:39.053Z,23.3
2022-07-28T11:29:05.681Z,23.4
2022-07-28T11:31:32.290Z,23.4
2022-07-28T11:33:57.423Z,23.4
2022-07-28T11:36:24.062Z,23.4
2022-07-28T11:38:50.663Z,23.4
2022-07-28T11:41:17.305Z,23.4
2022-07-28T11:43:43.941Z,23.4
2022-07-28T11:46:10.527Z,23.4
2022-07-28T11:48:37.168Z,23.4
2022-07-28T11:51:03.811Z,23.4
2022-07-28T11:53:30.400Z,23.4
2022-07-28T11:55:57.036Z,23.4
2022-07-28T11:58:23.658Z,23.4
2022-07-28T12:00:50.276Z,23.4
2022-07-28T12:03:16.909Z,23.5
2022-07-28T12:05:42.026Z,23.5
2022-07-28T12:08:08.658Z,23.5
2022-07-28T12:10:35.290Z,23.6
2022-07-28T12:13:01.921Z,23.6
2022-07-28T12:15:28.533Z,23.6
2022-07-28T12:17:55.200Z,23.6
2022-07-28T12:20:21.774Z,23.6
2022-07-28T12:22:48.495Z,23.6
2022-07-28T12:25:15.014Z,23.6
2022-07-28T12:27:41.710Z,23.6
2022-07-28T12:30:08.290Z,23.6
2022-07-28T12:32:34.897Z,23.6
2022-07-28T12:35:01.523Z,23.7
2022-07-28T12:37:26.647Z,23.7
2022-07-28T12:39:53.262Z,23.7
2022-07-28T12:42:19.904Z,23.7
2022-07-28T12:44:46.542Z,23.7
2022-07-28T12:47:13.137Z,23.7
2022-07-28T12:49:39.768Z,23.7
2022-07-28T12:52:06.390Z,23.7
2022-07-28T12:54:33.007Z,23.7
2022-07-28T12:56:59.638Z,23.8
2022-07-28T12:59:26.269Z,23.8
2022-07-28T13:01:52.887Z,23.8
2022-07-28T13:04:19.515Z,23.8
2022-07-28T13:06:46.133Z,23.9
2022-07-28T13:09:12.747Z,23.9
2022-07-28T13:11:37.873Z,23.9
2022-07-28T13:14:04.519Z,23.9
2022-07-28T13:16:31.122Z,23.9
2022-07-28T13:18:57.751Z,23.9
2022-07-28T13:21:24.376Z,23.9
2022-07-28T13:23:51.001Z,24
2022-07-28T13:26:17.627Z,23.9
2022-07-28T13:28:44.248Z,24
2022-07-28T13:31:10.862Z,24
2022-07-28T13:33:37.500Z,24
2022-07-28T13:36:04.115Z,24.1
2022-07-28T13:38:30.744Z,24.1
2022-07-28T13:40:57.370Z,24.1
2022-07-28T13:43:22.510Z,24.1
2022-07-28T13:45:49.126Z,24.1
2022-07-28T13:48:15.748Z,24.1
2022-07-28T13:50:42.397Z,24.1
2022-07-28T13:53:08.988Z,24.1
2022-07-28T13:55:35.606Z,24.1
2022-07-28T13:58:02.231Z,24.2
2022-07-28T14:00:28.857Z,24.2
2022-07-28T14:02:55.473Z,24.2
2022-07-28T14:05:22.103Z,24.2
2022-07-28T14:07:48.720Z,24.2
2022-07-28T14:10:15.352Z,24.2
2022-07-28T14:12:41.985Z,24.3
2022-07-28T14:15:07.107Z,24.3
2022-07-28T14:17:33.728Z,24.3
2022-07-28T14:20:00.343Z,24.3
2022-07-28T14:22:26.987Z,24.4
2022-07-28T14:24:53.592Z,24.4
2022-07-28T14:27:20.217Z,24.4
2022-07-28T14:29:46.847Z,24.4
2022-07-28T14:32:13.475Z,24.4
2022-07-28T14:34:40.093Z,24.4
2022-07-28T14:37:06.719Z,24.4
2022-07-28T14:39:33.344Z,24.4
2022-07-28T14:41:59.979Z,24.4
2022-07-28T14:44:26.595Z,24.4
2022-07-28T14:46:53.212Z,24.4
2022-07-28T14:49:18.335Z,24.4
2022-07-28T14:51:44.970Z,24.5
2022-07-28T14:54:11.584Z,24.5
2022-07-28T14:56:38.217Z,24.5
2022-07-28T14:59:04.844Z,24.6
2022-07-28T15:01:31.463Z,24.6
2022-07-28T15:03:58.083Z,24.6
2022-07-28T15:06:24.731Z,24.6
2022-07-28T15:08:51.321Z,24.6
2022-07-28T15:11:17.962Z,24.6
2022-07-28T15:13:44.580Z,24.6
2022-07-28T15:16:11.213Z,24.6
2022-07-28T15:18:37.828Z,24.6
2022-07-28T15:21:02.952Z,24.6
2022-07-28T15:23:29.575Z,24.6
2022-07-28T15:25:56.266Z,24.6
2022-07-28T15:28:22.836Z,24.7
2022-07-28T15:30:49.468Z,24.7
2022-07-28T15:33:16.068Z,24.9
2022-07-28T15:35:42.693Z,25
2022-07-28T15:38:09.345Z,25.1
2022-07-28T15:40:35.950Z,25.2
2022-07-28T15:43:02.557Z,25.2
2022-07-28T15:45:29.185Z,25.2
2022-07-28T15:47:55.811Z,25.2
2022-07-28T15:50:22.459Z,25.3
2022-07-28T15:52:47.561Z,25.3
2022-07-28T15:55:14.181Z,25.4
2022-07-28T15:57:40.802Z,25.3
2022-07-28T16:00:07.441Z,25.4
2022-07-28T16:02:34.065Z,25.4
2022-07-28T16:04:59.184Z,25.4
2022-07-28T16:07:25.818Z,25.5
2022-07-28T16:09:52.440Z,25.5
2022-07-28T16:12:19.066Z,25.6
2022-07-28T16:14:45.696Z,25.6
2022-07-28T16:17:12.305Z,25.6
2022-07-28T16:19:38.925Z,25.6
2022-07-28T16:22:05.554Z,25.6
2022-07-28T16:24:32.189Z,25.6
2022-07-28T16:26:58.806Z,25.5
2022-07-28T16:29:25.423Z,25.5
2022-07-28T16:34:18.670Z,25.4
2022-07-28T16:36:43.811Z,25.5
2022-07-28T16:39:10.422Z,25.5
2022-07-28T16:41:37.061Z,25.5
2022-07-28T16:44:03.677Z,25.6
2022-07-28T16:46:30.300Z,25.6
2022-07-28T16:48:56.928Z,25.6
2022-07-28T16:53:50.170Z,25.4
2022-07-28T16:56:16.788Z,25.4
2022-07-28T16:58:43.401Z,25.4
2022-07-28T17:01:10.035Z,25.4
2022-07-28T17:03:36.666Z,25.4
2022-07-28T17:06:03.281Z,25.4
2022-07-28T17:08:28.415Z,25.4
2022-07-28T17:10:55.031Z,25.5
2022-07-28T17:13:21.655Z,25.5
2022-07-28T17:15:48.273Z,25.5
2022-07-28T17:18:14.895Z,25.5
2022-07-28T17:20:41.522Z,25.5
2022-07-28T17:23:08.155Z,25.6
2022-07-28T17:25:34.772Z,25.6
2022-07-28T17:28:01.404Z,25.6
2022-07-28T17:30:28.015Z,25.6
2022-07-28T17:35:21.264Z,25.6
2022-07-28T17:37:47.886Z,25.6
2022-07-28T17:40:13.015Z,25.6
2022-07-28T17:42:39.635Z,25.6
2022-07-28T17:45:06.254Z,25.6
2022-07-28T17:47:32.879Z,25.6
2022-07-28T17:49:59.519Z,25.6
2022-07-28T17:52:26.139Z,25.6
2022-07-28T17:54:52.760Z,25.6
2022-07-28T17:57:19.382Z,25.7
2022-07-28T17:59:46.009Z,25.7
2022-07-28T18:02:12.619Z,25.7
2022-07-28T18:04:39.252Z,25.7
2022-07-28T18:07:05.885Z,25.7
2022-07-28T18:09:32.507Z,25.7
2022-07-28T18:11:57.631Z,25.7
2022-07-28T18:14:24.253Z,25.7
2022-07-28T18:16:50.874Z,25.7
2022-07-28T18:19:17.499Z,25.7
2022-07-28T18:21:44.126Z,25.7
2022-07-28T18:24:10.750Z,25.7
2022-07-28T18:26:37.358Z,25.7
2022-07-28T18:29:03.993Z,25.7
2022-07-28T18:31:30.606Z,25.7
2022-07-28T18:33:57.249Z,25.7
2022-07-28T18:36:23.861Z,25.7
2022-07-28T18:38:50.487Z,25.7
2022-07-28T18:41:17.115Z,25.7
2022-07-28T18:43:42.230Z,25.7
2022-07-28T18:46:08.851Z,25.7
2022-07-28T18:48:35.487Z,25.8
2022-07-28T18:51:02.109Z,25.8
2022-07-28T18:53:28.748Z,25.8
2022-07-28T18:55:55.357Z,25.8
2022-07-28T18:58:21.979Z,25.8
2022-07-28T19:00:48.598Z,25.8
2022-07-28T19:03:15.212Z,25.8
2022-07-28T19:05:41.853Z,25.8
2022-07-28T19:08:08.474Z,25.8
2022-07-28T19:10:35.092Z,25.8
2022-07-28T19:13:01.731Z,25.8
2022-07-28T19:15:26.845Z,25.8
2022-07-28T19:17:53.457Z,25.8
2022-07-28T19:20:20.098Z,25.8
2022-07-28T19:22:46.712Z,25.8
2022-07-28T19:25:13.344Z,25.9
2022-07-28T19:27:39.950Z,25.9
2022-07-28T19:30:06.577Z,25.9
2022-07-28T19:32:33.213Z,25.8
2022-07-28T19:34:59.826Z,25.8
2022-07-28T19:37:26.462Z,25.9
2022-07-28T19:39:53.067Z,25.9
2022-07-28T19:42:19.702Z,25.9
2022-07-28T19:44:46.312Z,25.9
2022-07-28T19:47:11.475Z,25.9
2022-07-28T19:49:38.063Z,25.9
2022-07-28T19:52:04.687Z,25.9
2022-07-28T19:54:31.317Z,25.9
2022-07-28T19:56:57.946Z,25.9
2022-07-28T19:59:24.552Z,25.9
2022-07-28T20:01:51.180Z,25.9
2022-07-28T20:04:17.800Z,25.9
2022-07-28T20:06:44.433Z,25.9
2022-07-28T20:09:11.063Z,25.9
2022-07-28T20:11:37.677Z,25.9
2022-07-28T20:14:04.292Z,25.9
2022-07-28T20:16:30.930Z,25.9
2022-07-28T20:18:56.054Z,25.9
2022-07-28T20:21:22.665Z,25.9
2022-07-28T20:23:49.302Z,25.9
2022-07-28T20:26:15.918Z,25.9
2022-07-28T20:28:42.564Z,25.9
2022-07-28T20:31:09.177Z,25.9
2022-07-28T20:33:35.791Z,25.9
2022-07-28T20:36:02.402Z,25.8
2022-07-28T20:38:29.095Z,25.9
2022-07-28T20:40:55.651Z,25.9
2022-07-28T20:43:22.279Z,25.9
2022-07-28T20:45:48.896Z,25.9
2022-07-28T20:48:15.520Z,25.9
2022-07-28T20:50:40.668Z,25.8
2022-07-28T20:53:07.274Z,25.9
2022-07-28T20:55:33.912Z,25.9
2022-07-28T20:58:00.531Z,25.9
2022-07-28T21:00:27.137Z,25.8
2022-07-28T21:02:53.778Z,25.8
2022-07-28T21:05:20.393Z,25.8
2022-07-28T21:07:47.026Z,25.8
2022-07-28T21:10:13.641Z,25.8
2022-07-28T21:12:40.246Z,25.8
2022-07-28T21:15:06.895Z,25.8
2022-07-28T21:17:33.511Z,25.8
2022-07-28T21:20:00.136Z,25.8
2022-07-28T21:22:25.254Z,25.9
2022-07-28T21:24:51.881Z,25.8
2022-07-28T21:27:18.497Z,25.8
2022-07-28T21:29:45.109Z,25.8
2022-07-28T21:32:11.958Z,25.8
2022-07-28T21:34:38.370Z,25.8
2022-07-28T21:37:04.989Z,25.8
2022-07-28T21:39:31.617Z,25.8
2022-07-28T21:41:58.236Z,25.8
2022-07-28T21:44:24.859Z,25.8
2022-07-28T21:46:51.481Z,25.8
2022-07-28T21:49:18.102Z,25.8
2022-07-28T21:51:44.727Z,25.8
2022-07-28T21:54:09.869Z,25.8
2022-07-28T21:56:36.487Z,25.8
2022-07-28T21:59:03.095Z,25.8
2022-07-28T22:01:29.725Z,25.8
2022-07-28T22:03:56.349Z,25.8
2022-07-28T22:06:22.979Z,25.8
2022-07-28T22:08:49.599Z,25.8
2022-07-28T22:11:16.231Z,25.8
2022-07-28T22:13:42.850Z,25.8
2022-07-28T22:16:09.466Z,25.7
2022-07-28T22:18:36.079Z,25.7
2022-07-28T22:21:02.718Z,25.7
2022-07-28T22:23:29.348Z,25.7
2022-07-28T22:25:54.487Z,25.7
2022-07-28T22:28:21.084Z,25.7
2022-07-28T22:30:47.713Z,25.7
2022-07-28T22:33:14.351Z,25.7
2022-07-28T22:35:40.962Z,25.7
2022-07-28T22:38:07.592Z,25.7
2022-07-28T22:40:34.205Z,25.7
2022-07-28T22:43:00.835Z,25.7
2022-07-28T22:45:27.464Z,25.7
2022-07-28T22:47:54.081Z,25.7
2022-07-28T22:50:20.706Z,25.7
2022-07-28T22:52:47.324Z,25.7
2022-07-28T22:55:13.945Z,25.7
2022-07-28T22:57:39.078Z,25.7
2022-07-28T23:00:05.707Z,25.7
2022-07-28T23:02:32.329Z,25.7
2022-07-28T23:04:58.956Z,25.7
2022-07-28T23:07:25.567Z,25.7
2022-07-28T23:09:52.194Z,25.7
2022-07-28T23:12:18.817Z,25.7
2022-07-28T23:14:45.444Z,25.7
2022-07-28T23:17:12.073Z,25.7
2022-07-28T23:19:38.688Z,25.7
2022-07-28T23:22:05.314Z,25.7
2022-07-28T23:24:31.925Z,25.7
2022-07-28T23:26:58.560Z,25.7
2022-07-28T23:29:23.677Z,25.7
2022-07-28T23:31:50.310Z,25.7
2022-07-28T23:34:16.932Z,25.6
2022-07-28T23:36:43.553Z,25.6
2022-07-28T23:39:10.161Z,25.6
2022-07-28T23:41:36.795Z,25.6
2022-07-28T23:44:03.416Z,25.6
2022-07-28T23:46:30.045Z,25.6
2022-07-28T23:48:56.655Z,25.6
2022-07-28T23:51:23.280Z,25.6
2022-07-28T23:53:49.914Z,25.6
2022-07-28T23:56:16.527Z,25.6
2022-07-28T23:58:43.158Z,25.6
